createdAt,value
2023-04-02T00:01:33.927Z,9.81
2023-04-02T00:04:00.810Z,9.76
2023-04-02T00:06:33.283Z,9.72
2023-04-02T00:09:21.526Z,9.59
2023-04-02T00:11:54.968Z,9.56
2023-04-02T00:14:23.508Z,9.50
2023-04-02T00:16:52.121Z,9.38
2023-04-02T00:19:36.208Z,9.35
2023-04-02T00:22:07.649Z,9.27
2023-04-02T00:24:34.819Z,9.22
2023-04-02T00:27:01.811Z,9.17
2023-04-02T00:29:28.678Z,9.18
2023-04-02T00:31:59.396Z,9.15
2023-04-02T00:34:31.906Z,9.12
2023-04-02T00:36:59.557Z,9.16
2023-04-02T00:39:34.592Z,9.17
2023-04-02T00:42:05.831Z,9.16
2023-04-02T00:44:38.055Z,9.16
2023-04-02T00:47:17.634Z,9.21
2023-04-02T00:49:44.709Z,9.19
2023-04-02T00:52:18.804Z,9.14
2023-04-02T00:54:51.094Z,9.16
2023-04-02T00:57:25.842Z,9.04
2023-04-02T00:59:57.921Z,8.94
2023-04-02T01:02:28.707Z,8.99
2023-04-02T01:05:00.128Z,8.97
2023-04-02T01:07:37.703Z,8.93
2023-04-02T01:10:26.562Z,8.93
2023-04-02T01:13:11.747Z,8.95
2023-04-02T01:15:44.043Z,8.84
2023-04-02T01:18:18.768Z,8.72
2023-04-02T01:21:11.168Z,8.80
2023-04-02T01:23:44.299Z,8.71
2023-04-02T01:26:19.206Z,8.59
2023-04-02T01:28:49.423Z,8.56
2023-04-02T01:31:16.717Z,8.55
2023-04-02T01:33:43.923Z,8.46
2023-04-02T01:36:16.533Z,8.44
2023-04-02T01:39:06.101Z,8.49
2023-04-02T01:41:43.876Z,8.45
2023-04-02T01:44:18.086Z,8.47
2023-04-02T01:46:49.379Z,8.56
2023-04-02T01:49:21.567Z,8.59
2023-04-02T01:51:56.784Z,8.54
2023-04-02T01:54:29.111Z,8.57
2023-04-02T01:56:57.701Z,8.58
2023-04-02T01:59:26.545Z,8.54
2023-04-02T02:02:04.051Z,8.54
2023-04-02T02:04:34.202Z,8.56
2023-04-02T02:07:02.556Z,8.58
2023-04-02T02:09:35.666Z,8.56
2023-04-02T02:12:04.112Z,8.50
2023-04-02T02:14:31.931Z,8.54
2023-04-02T02:17:02.532Z,8.53
2023-04-02T02:19:56.122Z,8.54
2023-04-02T02:22:29.188Z,8.57
2023-04-02T02:24:57.809Z,8.61
2023-04-02T02:27:25.250Z,8.63
2023-04-02T02:30:16.630Z,8.65
2023-04-02T02:32:55.011Z,8.58
2023-04-02T02:35:23.362Z,8.66
2023-04-02T02:38:14.416Z,8.65
2023-04-02T02:40:46.300Z,8.67
2023-04-02T02:43:16.975Z,8.83
2023-04-02T02:45:47.442Z,8.89
2023-04-02T02:48:18.855Z,8.81
2023-04-02T02:50:46.193Z,8.84
2023-04-02T02:53:23.552Z,8.92
2023-04-02T02:55:59.652Z,8.86
2023-04-02T02:58:34.519Z,8.87
2023-04-02T03:01:21.949Z,8.94
2023-04-02T03:03:54.286Z,8.96
2023-04-02T03:06:22.670Z,8.94
2023-04-02T03:09:05.276Z,9.00
2023-04-02T03:12:02.292Z,9.15
2023-04-02T03:14:38.181Z,9.16
2023-04-02T03:17:21.134Z,9.20
2023-04-02T03:19:57.805Z,9.32
2023-04-02T03:22:38.747Z,9.42
2023-04-02T03:25:23.545Z,9.42
2023-04-02T03:27:57.104Z,9.47
2023-04-02T03:30:42.416Z,9.59
2023-04-02T03:33:25.473Z,9.47
2023-04-02T03:36:38.559Z,9.44
2023-04-02T03:39:18.609Z,9.27
2023-04-02T03:41:56.587Z,9.09
2023-04-02T03:44:33.572Z,9.05
2023-04-02T03:47:16.706Z,9.05
2023-04-02T03:49:52.386Z,9.00
2023-04-02T03:52:29.913Z,9.04
2023-04-02T03:55:02.947Z,9.04
2023-04-02T03:57:34.909Z,9.06
2023-04-02T04:00:14.571Z,9.11
2023-04-02T04:02:46.559Z,9.16
2023-04-02T04:05:30.040Z,9.20
2023-04-02T04:08:08.339Z,9.27
2023-04-02T04:10:36.274Z,9.21
2023-04-02T04:13:09.464Z,9.20
2023-04-02T04:15:45.768Z,9.33
2023-04-02T04:18:47.537Z,9.37
2023-04-02T04:21:30.310Z,9.51
2023-04-02T04:24:16.666Z,9.62
2023-04-02T04:26:57.942Z,9.74
2023-04-02T04:29:50.374Z,9.62
2023-04-02T04:32:58.941Z,9.97
2023-04-02T04:35:32.710Z,10.71
2023-04-02T04:38:12.338Z,10.62
2023-04-02T04:40:54.188Z,10.64
2023-04-02T04:43:50.171Z,10.66
2023-04-02T04:46:23.416Z,10.50
2023-04-02T04:49:09.905Z,10.51
2023-04-02T04:51:52.197Z,10.65
2023-04-02T04:54:20.556Z,10.82
2023-04-02T04:57:03.229Z,11.40
2023-04-02T05:00:13.415Z,12.08
2023-04-02T05:02:49.008Z,12.91
2023-04-02T05:05:25.186Z,13.79
2023-04-02T05:08:27.225Z,14.67
2023-04-02T05:11:03.626Z,14.17
2023-04-02T05:13:44.467Z,14.20
2023-04-02T05:16:16.464Z,15.24
2023-04-02T05:18:49.293Z,15.65
2023-04-02T05:21:39.920Z,15.58
2023-04-02T05:24:32.643Z,15.97
2023-04-02T05:27:10.160Z,17.03
2023-04-02T05:29:41.803Z,16.40
2023-04-02T05:32:21.329Z,15.79
2023-04-02T05:34:52.932Z,16.57
2023-04-02T05:37:23.322Z,15.93
2023-04-02T05:39:55.790Z,15.44
2023-04-02T05:42:37.903Z,15.06
2023-04-02T05:45:28.182Z,14.58
2023-04-02T05:48:02.102Z,14.86
2023-04-02T05:50:43.414Z,14.66
2023-04-02T05:53:25.842Z,14.07
2023-04-02T05:56:02.440Z,13.92
2023-04-02T05:58:38.692Z,14.09
2023-04-02T06:01:39.667Z,14.21
2023-04-02T06:04:27.086Z,13.98
2023-04-02T06:07:09.602Z,14.54
2023-04-02T06:09:56.622Z,15.91
2023-04-02T06:12:47.629Z,17.06
2023-04-02T06:15:21.774Z,17.54
2023-04-02T06:17:52.432Z,18.65
2023-04-02T06:20:21.458Z,19.45
2023-04-02T06:22:53.112Z,20.57
2023-04-02T06:25:27.275Z,19.91
2023-04-02T06:27:58.369Z,20.06
2023-04-02T06:30:32.189Z,20.31
2023-04-02T06:33:00.198Z,20.68
2023-04-02T06:35:28.865Z,21.06
2023-04-02T06:38:02.803Z,20.87
2023-04-02T06:40:39.834Z,20.16
2023-04-02T06:43:37.934Z,20.06
2023-04-02T06:46:31.165Z,21.57
2023-04-02T06:49:25.933Z,19.80
2023-04-02T06:52:00.638Z,19.67
2023-04-02T06:54:28.877Z,18.47
2023-04-02T06:57:00.383Z,17.84
2023-04-02T06:59:40.070Z,19.20
2023-04-02T07:02:33.764Z,19.62
2023-04-02T07:05:06.319Z,19.25
2023-04-02T07:07:35.699Z,19.66
2023-04-02T07:10:07.167Z,20.32
2023-04-02T07:12:34.180Z,20.44
2023-04-02T07:15:00.993Z,21.07
2023-04-02T07:17:28.095Z,21.35
2023-04-02T07:19:55.001Z,21.70
2023-04-02T07:22:23.062Z,20.03
2023-04-02T07:24:54.264Z,19.43
2023-04-02T07:40:23.160Z,15.93
2023-04-02T07:42:50.425Z,15.97
2023-04-02T07:45:17.368Z,15.61
2023-04-02T07:47:44.635Z,15.42
2023-04-02T07:50:11.522Z,15.08
2023-04-02T07:52:42.725Z,14.77
2023-04-02T07:55:15.632Z,14.44
2023-04-02T07:57:52.066Z,14.39
2023-04-02T08:00:20.722Z,14.13
2023-04-02T08:02:47.993Z,13.50
2023-04-02T08:05:16.216Z,13.55
2023-04-02T08:07:43.207Z,13.48
2023-04-02T08:10:12.775Z,13.46
2023-04-02T08:12:39.706Z,13.29
2023-04-02T08:15:07.549Z,13.31
2023-04-02T08:17:34.397Z,13.32
2023-04-02T08:20:01.896Z,13.05
2023-04-02T08:22:29.556Z,13.16
2023-04-02T08:24:57.279Z,13.25
2023-04-02T08:27:25.126Z,13.13
2023-04-02T08:29:52.514Z,13.20
2023-04-02T08:32:19.481Z,13.52
2023-04-02T08:34:46.466Z,13.88
2023-04-02T08:37:13.910Z,13.80
2023-04-02T08:39:41.354Z,14.43
2023-04-02T08:42:30.508Z,15.33
2023-04-02T08:45:25.450Z,15.58
2023-04-02T08:47:56.557Z,15.90
2023-04-02T08:50:36.422Z,15.59
2023-04-02T08:53:23.124Z,15.73
2023-04-02T08:55:49.957Z,15.88
2023-04-02T08:58:44.273Z,15.87
2023-04-02T09:01:31.708Z,15.83
2023-04-02T09:03:59.739Z,16.10
2023-04-02T09:06:29.295Z,15.89
2023-04-02T09:08:58.224Z,15.44
2023-04-02T09:11:34.157Z,15.58
2023-04-02T09:14:06.586Z,16.06
2023-04-02T09:16:43.565Z,15.98
2023-04-02T09:19:20.046Z,15.68
2023-04-02T09:22:16.603Z,15.87
2023-04-02T09:24:43.686Z,15.25
2023-04-02T09:27:23.077Z,15.57
2023-04-02T09:29:55.697Z,15.23
2023-04-02T09:32:50.599Z,15.70
2023-04-02T09:35:26.015Z,15.82
2023-04-02T09:38:11.774Z,16.27
2023-04-02T09:40:54.155Z,16.23
2023-04-02T09:43:25.602Z,16.78
2023-04-02T09:46:15.550Z,16.34
2023-04-02T09:49:01.483Z,16.22
2023-04-02T09:51:33.381Z,16.98
2023-04-02T09:54:03.205Z,18.52
2023-04-02T09:56:32.844Z,19.64
2023-04-02T09:59:19.420Z,22.16
2023-04-02T10:02:23.569Z,23.14
2023-04-02T10:04:51.014Z,21.65
2023-04-02T10:07:36.759Z,23.67
2023-04-02T10:10:28.188Z,24.61
2023-04-02T10:13:04.321Z,25.54
2023-04-02T10:15:53.898Z,22.79
2023-04-02T10:18:35.870Z,22.34
2023-04-02T10:21:04.715Z,20.80
2023-04-02T10:23:32.734Z,20.23
2023-04-02T10:26:15.822Z,19.02
2023-04-02T10:28:54.772Z,18.24
2023-04-02T10:31:26.514Z,17.78
2023-04-02T10:34:10.062Z,17.25
2023-04-02T10:36:58.104Z,17.79
2023-04-02T10:39:41.597Z,17.81
2023-04-02T10:42:27.608Z,18.25
2023-04-02T10:45:19.943Z,17.87
2023-04-02T10:48:02.109Z,18.01
2023-04-02T10:50:55.535Z,19.31
2023-04-02T10:53:33.603Z,18.21
2023-04-02T10:56:05.769Z,17.72
2023-04-02T10:58:39.534Z,17.84
2023-04-02T11:01:13.670Z,18.08
2023-04-02T11:03:58.186Z,17.82
2023-04-02T11:06:58.053Z,18.32
2023-04-02T11:09:37.402Z,18.24
2023-04-02T11:12:06.502Z,17.96
2023-04-02T11:14:33.842Z,17.61
2023-04-02T11:17:04.472Z,17.22
2023-04-02T11:19:36.111Z,17.06
2023-04-02T11:22:22.364Z,16.84
2023-04-02T11:24:54.854Z,17.57
2023-04-02T11:27:24.945Z,19.42
2023-04-02T11:30:22.920Z,19.00
2023-04-02T11:32:50.420Z,18.80
2023-04-02T11:35:32.622Z,18.39
2023-04-02T11:38:04.400Z,18.10
2023-04-02T11:40:54.919Z,17.81
2023-04-02T11:43:34.313Z,18.17
2023-04-02T11:46:20.693Z,17.95
2023-04-02T11:48:47.846Z,18.19
2023-04-02T11:51:21.384Z,18.59
2023-04-02T11:53:50.275Z,18.90
2023-04-02T11:56:37.629Z,19.60
2023-04-02T11:59:10.603Z,19.47
2023-04-02T12:01:59.459Z,19.25
2023-04-02T12:04:53.353Z,19.10
2023-04-02T12:08:05.271Z,18.63
2023-04-02T12:10:53.374Z,18.83
2023-04-02T12:13:40.695Z,18.89
2023-04-02T12:16:14.482Z,19.13
2023-04-02T12:18:53.983Z,19.35
2023-04-02T12:21:25.957Z,18.61
2023-04-02T12:23:56.969Z,18.42
2023-04-02T12:26:39.021Z,18.16
2023-04-02T12:29:15.165Z,18.10
2023-04-02T12:31:48.173Z,17.89
2023-04-02T12:34:18.539Z,17.62
2023-04-02T12:37:20.667Z,18.20
2023-04-02T12:40:17.735Z,18.28
2023-04-02T12:42:44.665Z,17.95
2023-04-02T12:45:31.201Z,17.57
2023-04-02T12:48:03.227Z,17.23
2023-04-02T12:50:30.250Z,17.29
2023-04-02T12:52:59.099Z,17.17
2023-04-02T12:55:27.610Z,16.92
2023-04-02T12:57:59.147Z,16.89
2023-04-02T13:00:26.008Z,16.99
2023-04-02T13:03:05.964Z,17.05
2023-04-02T13:05:34.767Z,16.92
2023-04-02T13:08:02.022Z,16.79
2023-04-02T13:10:29.015Z,16.91
2023-04-02T13:13:01.244Z,16.71
2023-04-02T13:15:31.625Z,16.87
2023-04-02T13:18:05.041Z,17.24
2023-04-02T13:20:41.369Z,17.42
2023-04-02T13:23:30.014Z,18.14
2023-04-02T13:26:17.455Z,18.15
2023-04-02T13:29:01.755Z,18.07
2023-04-02T13:31:31.041Z,18.16
2023-04-02T13:33:58.843Z,17.85
2023-04-02T13:36:26.501Z,17.80
2023-04-02T13:38:53.408Z,17.69
2023-04-02T13:41:25.194Z,17.70
2023-04-02T13:43:54.368Z,17.38
2023-04-02T13:46:24.858Z,17.18
2023-04-02T13:48:53.511Z,17.07
2023-04-02T13:51:25.483Z,17.05
2023-04-02T13:53:57.270Z,17.16
2023-04-02T13:56:25.056Z,17.26
2023-04-02T13:58:52.485Z,17.13
2023-04-02T14:01:21.974Z,17.13
2023-04-02T14:03:49.042Z,17.14
2023-04-02T14:06:29.192Z,17.28
2023-04-02T14:09:09.808Z,17.37
2023-04-02T14:11:36.701Z,17.58
2023-04-02T14:14:25.132Z,17.49
2023-04-02T14:16:57.852Z,17.34
2023-04-02T14:20:01.904Z,17.50
2023-04-02T14:22:44.095Z,17.41
2023-04-02T14:25:38.665Z,17.32
2023-04-02T14:28:20.597Z,17.32
2023-04-02T14:31:38.124Z,17.39
2023-04-02T14:34:16.632Z,17.50
2023-04-02T14:36:56.557Z,17.44
2023-04-02T14:39:31.758Z,17.35
2023-04-02T14:42:04.637Z,17.32
2023-04-02T14:44:42.497Z,17.27
2023-04-02T14:47:25.103Z,17.12
2023-04-02T14:49:59.087Z,17.15
2023-04-02T14:52:28.721Z,17.40
2023-04-02T14:55:12.085Z,17.29
2023-04-02T14:57:49.046Z,17.14
2023-04-02T15:00:40.549Z,16.74
2023-04-02T15:03:25.084Z,16.82
2023-04-02T15:05:59.141Z,16.70
2023-04-02T15:08:37.194Z,16.51
2023-04-02T15:11:13.349Z,16.49
2023-04-02T15:13:49.802Z,16.52
2023-04-02T15:16:19.694Z,16.60
2023-04-02T15:18:51.272Z,16.53
2023-04-02T15:21:25.618Z,16.46
2023-04-02T15:24:11.570Z,16.48
2023-04-02T15:27:00.440Z,16.53
2023-04-02T15:30:15.067Z,16.59
2023-04-02T15:32:43.722Z,16.56
2023-04-02T15:35:16.749Z,16.41
2023-04-02T15:37:58.143Z,16.49
2023-04-02T15:40:43.219Z,16.34
2023-04-02T15:43:16.343Z,16.20
2023-04-02T15:46:26.172Z,16.26
2023-04-02T15:49:29.778Z,16.04
2023-04-02T15:52:30.505Z,16.06
2023-04-02T15:55:28.661Z,16.10
2023-04-02T15:58:04.575Z,16.00
2023-04-02T16:00:36.130Z,15.76
2023-04-02T16:03:24.634Z,15.92
2023-04-02T16:06:06.783Z,15.85
2023-04-02T16:08:41.529Z,15.61
2023-04-02T16:11:15.033Z,15.75
2023-04-02T16:13:43.273Z,15.75
2023-04-02T16:16:30.885Z,15.76
2023-04-02T16:19:21.048Z,15.57
2023-04-02T16:21:54.625Z,15.59
2023-04-02T16:24:22.712Z,15.50
2023-04-02T16:27:20.678Z,15.30
2023-04-02T16:30:05.905Z,15.19
2023-04-02T16:32:52.791Z,15.14
2023-04-02T16:35:44.544Z,15.04
2023-04-02T16:38:34.821Z,14.86
2023-04-02T16:41:39.014Z,13.81
2023-04-02T16:44:20.326Z,12.80
2023-04-02T16:47:05.667Z,12.70
2023-04-02T16:49:54.122Z,12.39
2023-04-02T16:52:38.248Z,11.82
2023-04-02T16:55:10.137Z,11.58
2023-04-02T16:57:44.799Z,11.38
2023-04-02T17:00:23.840Z,11.19
2023-04-02T17:03:06.188Z,11.01
2023-04-02T17:05:47.291Z,10.96
2023-04-02T17:08:17.201Z,11.07
2023-04-02T17:11:01.671Z,10.99
2023-04-02T17:13:48.870Z,10.87
2023-04-02T17:16:23.009Z,10.87
2023-04-02T17:18:53.257Z,10.79
2023-04-02T17:21:24.767Z,10.88
2023-04-02T17:23:56.713Z,10.78
2023-04-02T17:26:28.125Z,10.82
2023-04-02T17:28:58.700Z,10.79
2023-04-02T17:31:30.969Z,10.78
2023-04-02T17:33:57.954Z,10.74
2023-04-02T17:36:42.451Z,10.69
2023-04-02T17:39:40.649Z,10.61
2023-04-02T17:42:20.469Z,10.74
2023-04-02T17:45:01.569Z,10.80
2023-04-02T17:47:46.646Z,10.71
2023-04-02T17:50:34.653Z,10.82
2023-04-02T17:53:10.009Z,10.87
2023-04-02T17:56:01.483Z,10.78
2023-04-02T17:58:49.801Z,10.72
2023-04-02T18:01:55.944Z,10.74
2023-04-02T18:04:49.014Z,10.63
2023-04-02T18:07:24.715Z,10.63
2023-04-02T18:10:04.086Z,10.71
2023-04-02T18:12:31.494Z,10.40
2023-04-02T18:15:04.182Z,10.47
2023-04-02T18:17:39.945Z,10.57
2023-04-02T18:20:35.438Z,10.43
2023-04-02T18:23:21.674Z,10.54
2023-04-02T18:26:27.952Z,10.34
2023-04-02T18:29:03.906Z,10.39
2023-04-02T18:32:18.538Z,10.60
2023-04-02T18:35:00.637Z,10.50
2023-04-02T18:37:43.265Z,10.63
2023-04-02T18:40:49.832Z,10.71
2023-04-02T18:43:38.213Z,10.55
2023-04-02T18:46:32.418Z,10.65
2023-04-02T18:49:19.357Z,10.46
2023-04-02T18:51:50.286Z,10.50
2023-04-02T18:54:30.121Z,10.65
2023-04-02T18:56:57.123Z,10.51
2023-04-02T19:00:04.560Z,10.55
2023-04-02T19:02:48.870Z,10.52
2023-04-02T19:05:37.960Z,10.51
2023-04-02T19:08:31.490Z,10.67
2023-04-02T19:11:02.220Z,10.64
2023-04-02T19:13:29.397Z,10.59
2023-04-02T19:16:17.586Z,10.69
2023-04-02T19:18:55.898Z,10.65
2023-04-02T19:22:20.022Z,10.69
2023-04-02T19:25:08.845Z,10.23
2023-04-02T19:28:08.773Z,10.48
2023-04-02T19:42:35.998Z,10.29
2023-04-02T19:45:03.319Z,10.47
2023-04-02T19:47:30.302Z,10.55
2023-04-02T19:49:57.223Z,10.60
2023-04-02T19:52:24.091Z,10.65
2023-04-02T19:54:50.870Z,10.65
2023-04-02T19:57:18.106Z,10.73
2023-04-02T19:59:45.012Z,10.80
2023-04-02T20:02:11.976Z,10.73
2023-04-02T20:04:38.859Z,10.75
2023-04-02T20:07:05.860Z,10.73
2023-04-02T20:09:32.672Z,10.70
2023-04-02T20:11:59.665Z,10.76
2023-04-02T20:14:26.544Z,10.76
2023-04-02T20:16:53.658Z,10.77
2023-04-02T20:19:20.776Z,10.88
2023-04-02T20:21:47.882Z,10.97
2023-04-02T20:24:14.885Z,10.93
2023-04-02T20:26:41.926Z,10.89
2023-04-02T20:29:08.979Z,10.85
2023-04-02T20:31:36.257Z,10.87
2023-04-02T20:34:05.686Z,10.92
2023-04-02T20:36:33.004Z,10.90
2023-04-02T20:39:00.190Z,10.84
2023-04-02T20:41:27.621Z,10.97
2023-04-02T20:43:54.856Z,11.01
2023-04-02T20:46:22.511Z,11.00
2023-04-02T20:48:49.754Z,11.00
2023-04-02T20:51:16.940Z,10.88
2023-04-02T20:53:44.500Z,10.77
2023-04-02T20:56:14.464Z,10.76
2023-04-02T20:58:42.130Z,10.62
2023-04-02T21:01:09.533Z,10.52
2023-04-02T21:03:37.122Z,10.61
2023-04-02T21:06:04.315Z,10.77
2023-04-02T21:08:31.771Z,10.74
2023-04-02T21:11:04.044Z,10.73
2023-04-02T21:13:32.624Z,10.56
2023-04-02T21:16:00.291Z,10.61
2023-04-02T21:18:27.285Z,10.55
2023-04-02T21:21:02.569Z,10.59
2023-04-02T21:23:30.062Z,10.51
2023-04-02T21:26:01.735Z,10.46
2023-04-02T21:28:28.907Z,10.46
2023-04-02T21:31:11.719Z,10.41
2023-04-02T21:33:41.760Z,10.41
2023-04-02T21:36:12.104Z,10.42
2023-04-02T21:38:44.344Z,10.33
2023-04-02T21:41:16.956Z,10.31
2023-04-02T21:43:46.219Z,10.40
2023-04-02T21:46:13.384Z,10.48
2023-04-02T21:48:42.154Z,10.45
2023-04-02T21:51:15.872Z,10.55
2023-04-02T21:53:43.630Z,10.59
2023-04-02T21:56:22.908Z,10.54
2023-04-02T21:58:51.547Z,10.49
2023-04-02T22:01:27.097Z,10.62
2023-04-02T22:03:56.537Z,10.63
2023-04-02T22:06:26.029Z,10.61
2023-04-02T22:08:58.940Z,10.63
2023-04-02T22:11:36.498Z,10.68
2023-04-02T22:14:04.214Z,10.76
2023-04-02T22:16:33.615Z,10.74
2023-04-02T22:19:02.967Z,10.80
2023-04-02T22:21:31.183Z,10.79
2023-04-02T22:24:03.192Z,10.88
2023-04-02T22:26:31.941Z,10.80
2023-04-02T22:29:00.493Z,10.75
2023-04-02T22:31:29.904Z,10.42
2023-04-02T22:33:57.649Z,10.42
2023-04-02T22:36:26.029Z,10.41
2023-04-02T22:38:53.674Z,10.38
2023-04-02T22:41:25.759Z,10.40
2023-04-02T22:43:53.088Z,10.34
2023-04-02T22:46:20.928Z,10.36
2023-04-02T22:48:49.844Z,10.10
2023-04-02T22:51:19.218Z,10.15
2023-04-02T22:53:46.843Z,10.19
2023-04-02T22:56:19.291Z,10.12
2023-04-02T22:58:46.651Z,10.10
2023-04-02T23:01:17.895Z,10.08
2023-04-02T23:03:45.111Z,9.90
2023-04-02T23:06:15.167Z,9.82
2023-04-02T23:08:42.539Z,9.80
2023-04-02T23:11:22.151Z,9.77
2023-04-02T23:13:51.682Z,9.73
2023-04-02T23:16:19.915Z,9.78
2023-04-02T23:18:48.372Z,9.61
2023-04-02T23:21:16.567Z,9.58
2023-04-02T23:23:44.528Z,9.60
2023-04-02T23:26:16.195Z,9.57
2023-04-02T23:28:43.918Z,9.59
2023-04-02T23:31:19.991Z,9.52
2023-04-02T23:33:47.182Z,9.36
2023-04-02T23:36:22.353Z,9.31
2023-04-02T23:38:52.162Z,9.26
2023-04-02T23:41:19.107Z,9.26
2023-04-02T23:43:46.158Z,9.27
2023-04-02T23:46:13.146Z,9.25
2023-04-02T23:48:40.451Z,9.18
2023-04-02T23:51:07.407Z,9.19
2023-04-02T23:53:34.984Z,9.18
2023-04-02T23:56:02.008Z,9.16
2023-04-02T23:58:29.723Z,9.16
